createdAt,value
2019-06-08T00:01:43.445Z,54.11
2019-06-08T00:05:48.598Z,53.22
2019-06-08T00:09:53.738Z,53.27
2019-06-08T00:13:59.162Z,52.26
2019-06-08T00:18:04.473Z,52.25
2019-06-08T00:22:09.678Z,51.76
2019-06-08T00:26:15.918Z,51.19
2019-06-08T00:30:21.397Z,51.42
2019-06-08T00:34:26.696Z,51.07
2019-06-08T00:38:31.840Z,50.54
2019-06-08T00:42:36.899Z,51.17
2019-06-08T00:46:42.042Z,51.28
2019-06-08T00:50:47.197Z,51.03
2019-06-08T00:54:52.293Z,51.56
2019-06-08T00:58:57.456Z,51.77
2019-06-08T01:03:02.582Z,51.73
2019-06-08T01:07:07.694Z,51.79
2019-06-08T01:11:12.803Z,52.40
2019-06-08T01:15:23.772Z,51.99
2019-06-08T01:19:25.222Z,51.94
2019-06-08T01:23:30.310Z,51.42
2019-06-08T01:27:35.486Z,51.76
2019-06-08T01:31:40.852Z,51.90
2019-06-08T01:35:45.984Z,52.17
2019-06-08T01:39:51.135Z,52.79
2019-06-08T01:43:56.214Z,52.47
2019-06-08T01:48:15.995Z,52.91
2019-06-08T01:52:09.249Z,52.17
2019-06-08T01:56:14.397Z,52.92
2019-06-08T02:00:29.630Z,53.13
2019-06-08T02:04:26.324Z,53.13
2019-06-08T02:08:32.606Z,53.26
2019-06-08T02:12:37.698Z,52.83
2019-06-08T02:16:42.872Z,52.28
2019-06-08T02:20:48.021Z,52.51
2019-06-08T02:24:53.079Z,52.59
2019-06-08T02:28:59.414Z,51.97
2019-06-08T02:33:06.575Z,52.14
2019-06-08T02:37:11.775Z,52.04
2019-06-08T02:41:16.907Z,51.69
2019-06-08T02:45:22.059Z,51.55
2019-06-08T02:49:28.988Z,51.57
2019-06-08T02:53:36.050Z,51.81
2019-06-08T02:57:42.813Z,51.18
2019-06-08T03:01:50.147Z,51.40
2019-06-08T03:05:57.503Z,51.29
2019-06-08T03:10:04.827Z,51.08
2019-06-08T03:14:10.080Z,51.30
2019-06-08T03:18:15.272Z,52.14
2019-06-08T03:22:20.411Z,52.62
2019-06-08T03:26:25.389Z,52.57
2019-06-08T03:30:30.483Z,52.29
2019-06-08T03:34:39.935Z,52.06
2019-06-08T03:38:44.486Z,52.59
2019-06-08T03:42:50.877Z,52.39
2019-06-08T03:46:56.160Z,52.61
2019-06-08T03:51:01.785Z,53.17
2019-06-08T03:55:06.962Z,53.43
2019-06-08T03:59:12.159Z,53.33
2019-06-08T04:03:17.277Z,53.16
2019-06-08T04:07:22.455Z,53.95
2019-06-08T04:11:27.524Z,53.47
2019-06-08T04:15:33.094Z,53.92
2019-06-08T04:19:39.836Z,54.22
2019-06-08T04:23:46.891Z,53.83
2019-06-08T04:27:52.291Z,53.85
2019-06-08T04:31:57.469Z,53.57
2019-06-08T04:36:02.517Z,53.55
2019-06-08T04:40:08.517Z,54.66
2019-06-08T04:44:13.651Z,54.66
2019-06-08T04:48:18.935Z,54.27
2019-06-08T04:52:24.157Z,54.48
2019-06-08T04:56:29.465Z,54.79
2019-06-08T05:00:34.589Z,54.27
2019-06-08T05:04:40.982Z,54.44
2019-06-08T05:08:47.356Z,54.50
2019-06-08T05:12:52.907Z,54.62
2019-06-08T05:16:57.996Z,55.17
2019-06-08T05:21:03.174Z,55.23
2019-06-08T05:25:08.796Z,55.05
2019-06-08T05:29:14.156Z,55.67
2019-06-08T05:33:19.241Z,56.00
2019-06-08T05:37:24.330Z,55.96
2019-06-08T05:41:29.400Z,56.16
2019-06-08T05:45:34.587Z,56.49
2019-06-08T05:49:39.788Z,56.06
2019-06-08T05:53:45.833Z,56.13
2019-06-08T05:57:51.064Z,56.47
2019-06-08T06:01:56.259Z,56.93
2019-06-08T06:06:01.364Z,56.15
2019-06-08T06:10:07.187Z,56.42
2019-06-08T06:14:12.288Z,56.43
2019-06-08T06:18:17.474Z,56.49
2019-06-08T06:22:22.601Z,56.82
2019-06-08T06:26:27.916Z,57.36
2019-06-08T06:30:33.036Z,57.09
2019-06-08T06:34:38.261Z,57.34
2019-06-08T06:38:43.799Z,58.01
2019-06-08T06:42:50.058Z,58.21
2019-06-08T06:46:55.265Z,58.14
2019-06-08T06:51:00.412Z,58.36
2019-06-08T06:55:06.021Z,58.83
2019-06-08T06:59:12.379Z,59.14
2019-06-08T07:03:17.457Z,59.66
2019-06-08T07:07:22.691Z,60.44
2019-06-08T07:11:27.882Z,59.48
2019-06-08T07:15:41.127Z,58.72
2019-06-08T07:19:39.912Z,57.81
2019-06-08T07:23:46.267Z,57.04
2019-06-08T07:27:52.705Z,56.54
2019-06-08T07:31:59.233Z,55.78
2019-06-08T07:36:04.480Z,55.78
2019-06-08T07:40:09.982Z,55.04
2019-06-08T07:44:15.032Z,54.57
2019-06-08T07:48:20.184Z,53.94
2019-06-08T07:52:25.327Z,54.05
2019-06-08T07:56:30.518Z,53.89
2019-06-08T08:00:36.748Z,53.58
2019-06-08T08:04:41.810Z,53.99
2019-06-08T08:08:48.338Z,53.99
2019-06-08T08:12:54.750Z,53.79
2019-06-08T08:16:59.909Z,52.71
2019-06-08T08:21:17.831Z,52.90
2019-06-08T08:25:12.121Z,53.16
2019-06-08T08:29:17.675Z,53.29
2019-06-08T08:33:23.164Z,53.26
2019-06-08T08:37:28.649Z,52.63
2019-06-08T08:41:33.775Z,52.28
2019-06-08T08:45:40.683Z,52.20
2019-06-08T08:49:47.857Z,52.44
2019-06-08T08:53:55.830Z,52.14
2019-06-08T08:58:02.032Z,51.97
2019-06-08T09:02:11.006Z,51.67
2019-06-08T09:06:13.380Z,50.99
2019-06-08T09:10:18.643Z,51.76
2019-06-08T09:14:24.107Z,51.33
2019-06-08T09:18:29.286Z,50.52
2019-06-08T09:22:47.162Z,50.74
2019-06-08T09:26:41.469Z,50.48
2019-06-08T09:30:48.399Z,51.25
2019-06-08T09:34:54.641Z,50.44
2019-06-08T09:39:03.042Z,50.67
2019-06-08T09:43:12.774Z,51.37
2019-06-08T09:47:14.874Z,51.17
2019-06-08T09:51:20.171Z,50.96
2019-06-08T09:55:25.272Z,50.96
2019-06-08T09:59:30.426Z,51.21
2019-06-08T10:03:35.576Z,49.92
2019-06-08T10:07:40.705Z,50.53
2019-06-08T10:11:45.840Z,50.70
2019-06-08T10:15:51.520Z,50.52
2019-06-08T10:20:00.228Z,49.47
2019-06-08T10:24:06.131Z,49.47
2019-06-08T10:28:14.172Z,48.75
2019-06-08T10:32:19.271Z,49.24
2019-06-08T10:36:24.344Z,48.41
2019-06-08T10:40:29.462Z,49.03
2019-06-08T10:44:34.602Z,48.96
2019-06-08T10:48:39.725Z,49.05
2019-06-08T10:52:44.833Z,49.76
2019-06-08T10:56:50.057Z,50.87
2019-06-08T11:00:55.173Z,50.42
2019-06-08T11:05:04.758Z,50.38
2019-06-08T11:09:12.677Z,49.80
2019-06-08T11:13:15.332Z,50.47
2019-06-08T11:17:21.161Z,50.05
2019-06-08T11:21:28.610Z,49.27
2019-06-08T11:25:37.651Z,50.01
2019-06-08T11:29:42.877Z,49.57
2019-06-08T11:33:48.994Z,50.08
2019-06-08T11:37:54.409Z,50.79
2019-06-08T11:42:00.311Z,49.72
2019-06-08T11:46:06.616Z,48.46
2019-06-08T11:50:13.384Z,46.73
2019-06-08T11:54:32.884Z,46.90
2019-06-08T11:58:28.315Z,46.55
2019-06-08T12:02:33.995Z,46.93
2019-06-08T12:06:39.175Z,46.64
2019-06-08T12:10:44.375Z,46.74
2019-06-08T12:14:49.552Z,45.72
2019-06-08T12:18:54.638Z,44.63
2019-06-08T12:22:59.851Z,44.83
2019-06-08T12:27:14.385Z,45.45
2019-06-08T12:31:17.092Z,45.92
2019-06-08T12:35:18.813Z,44.21
2019-06-08T12:39:23.900Z,44.07
2019-06-08T12:43:29.073Z,43.04
2019-06-08T12:47:34.178Z,42.76
2019-06-08T12:51:40.315Z,42.77
2019-06-08T12:55:47.502Z,44.22
2019-06-08T12:59:52.228Z,42.92
2019-06-08T13:03:58.148Z,41.45
2019-06-08T13:08:03.318Z,40.61
2019-06-08T13:12:09.790Z,37.91
2019-06-08T13:16:19.354Z,40.38
2019-06-08T13:20:22.571Z,40.38
2019-06-08T13:24:28.522Z,40.51
2019-06-08T13:28:34.109Z,42.59
2019-06-08T13:32:40.762Z,43.22
2019-06-08T13:36:48.369Z,43.75
2019-06-08T13:40:52.838Z,46.33
2019-06-08T13:44:58.016Z,47.89
2019-06-08T13:49:03.213Z,46.21
2019-06-08T13:53:10.562Z,40.13
2019-06-08T13:57:19.993Z,36.87
2019-06-08T14:01:23.891Z,36.58
2019-06-08T14:05:31.053Z,36.92
2019-06-08T14:09:38.155Z,39.39
2019-06-08T14:13:42.900Z,39.16
2019-06-08T14:17:48.390Z,41.92
2019-06-08T14:21:53.550Z,42.85
2019-06-08T14:26:00.245Z,41.74
2019-06-08T14:30:08.312Z,42.35
2019-06-08T14:34:13.094Z,43.08
2019-06-08T14:38:22.510Z,43.14
2019-06-08T14:42:29.700Z,43.95
2019-06-08T14:46:31.778Z,43.71
2019-06-08T14:50:40.238Z,42.92
2019-06-08T14:54:43.865Z,41.38
2019-06-08T14:58:49.339Z,39.65
2019-06-08T15:02:54.453Z,43.69
2019-06-08T15:06:59.686Z,45.06
2019-06-08T15:11:04.874Z,53.37
2019-06-08T15:15:11.158Z,63.20
2019-06-08T15:19:18.445Z,62.88
2019-06-08T15:23:24.663Z,53.32
2019-06-08T15:27:33.034Z,43.82
2019-06-08T15:31:38.928Z,47.58
2019-06-08T15:35:43.686Z,49.90
2019-06-08T15:39:51.474Z,53.47
2019-06-08T15:43:57.517Z,54.60
2019-06-08T15:48:02.426Z,58.86
2019-06-08T15:52:07.573Z,61.82
2019-06-08T15:56:12.756Z,62.93
2019-06-08T16:00:18.587Z,69.80
2019-06-08T16:04:23.707Z,72.10
2019-06-08T16:08:30.288Z,72.79
2019-06-08T16:12:35.381Z,72.06
2019-06-08T16:16:40.541Z,62.35
2019-06-08T16:20:46.003Z,67.91
2019-06-08T16:24:51.159Z,69.52
2019-06-08T16:28:56.292Z,69.92
2019-06-08T16:33:01.346Z,69.80
2019-06-08T16:37:06.462Z,69.22
2019-06-08T16:41:11.648Z,69.05
2019-06-08T16:45:16.994Z,68.50
2019-06-08T16:49:22.124Z,69.23
2019-06-08T16:53:27.468Z,69.00
2019-06-08T16:57:35.093Z,68.97
2019-06-08T17:01:39.533Z,65.29
2019-06-08T17:05:44.712Z,54.73
2019-06-08T17:09:49.810Z,54.73
2019-06-08T17:13:54.853Z,58.64
2019-06-08T17:17:59.964Z,61.51
2019-06-08T17:22:05.052Z,58.74
2019-06-08T17:26:10.147Z,49.43
2019-06-08T17:30:15.557Z,48.46
2019-06-08T17:34:20.912Z,47.67
2019-06-08T17:38:27.030Z,45.13
2019-06-08T17:42:32.188Z,44.74
2019-06-08T17:46:39.050Z,45.43
2019-06-08T17:50:44.504Z,46.99
2019-06-08T17:54:49.635Z,44.19
2019-06-08T17:58:54.802Z,46.34
2019-06-08T18:03:00.625Z,49.05
2019-06-08T18:07:07.173Z,50.35
2019-06-08T18:11:12.935Z,55.11
2019-06-08T18:15:18.040Z,57.94
2019-06-08T18:19:28.286Z,57.78
2019-06-08T18:23:34.323Z,57.31
2019-06-08T18:27:42.088Z,53.28
2019-06-08T18:31:48.115Z,53.00
2019-06-08T18:35:54.251Z,52.73
2019-06-08T18:39:59.425Z,52.35
2019-06-08T18:44:04.539Z,49.43
2019-06-08T18:48:09.627Z,49.02
2019-06-08T18:52:14.711Z,47.93
2019-06-08T18:56:19.870Z,48.10
2019-06-08T19:00:40.060Z,49.42
2019-06-08T19:04:43.293Z,49.47
2019-06-08T19:08:50.553Z,50.34
2019-06-08T19:12:55.451Z,50.58
2019-06-08T19:17:00.837Z,51.02
2019-06-08T19:21:07.785Z,52.25
2019-06-08T19:25:12.967Z,53.25
2019-06-08T19:29:19.400Z,54.58
2019-06-08T19:33:24.632Z,56.99
2019-06-08T19:37:32.705Z,60.67
2019-06-08T19:41:38.119Z,63.78
2019-06-08T19:45:44.259Z,65.48
2019-06-08T19:49:54.482Z,66.62
2019-06-08T19:53:58.506Z,66.08
2019-06-08T19:58:04.921Z,66.10
2019-06-08T20:02:10.068Z,65.54
2019-06-08T20:06:17.586Z,66.19
2019-06-08T20:10:22.069Z,67.08
2019-06-08T20:14:27.137Z,67.25
2019-06-08T20:18:32.282Z,67.25
2019-06-08T20:22:37.909Z,67.70
2019-06-08T20:26:44.186Z,68.22
2019-06-08T20:30:50.563Z,68.39
2019-06-08T20:34:57.498Z,69.12
2019-06-08T20:39:02.724Z,69.55
2019-06-08T20:43:09.780Z,69.57
2019-06-08T20:47:14.857Z,69.37
2019-06-08T20:51:19.987Z,69.36
2019-06-08T20:55:25.278Z,69.99
2019-06-08T20:59:34.026Z,70.33
2019-06-08T21:03:37.256Z,70.58
2019-06-08T21:07:42.347Z,70.80
2019-06-08T21:11:49.790Z,71.10
2019-06-08T21:15:57.271Z,71.83
2019-06-08T21:20:01.041Z,71.92
2019-06-08T21:24:07.875Z,72.20
2019-06-08T21:28:13.160Z,72.68
2019-06-08T21:32:21.535Z,72.46
2019-06-08T21:36:25.124Z,72.71
2019-06-08T21:40:30.293Z,73.24
2019-06-08T21:44:37.241Z,73.11
2019-06-08T21:48:42.331Z,73.46
2019-06-08T21:52:48.960Z,73.53
2019-06-08T21:56:54.738Z,73.66
2019-06-08T22:01:01.145Z,73.94
2019-06-08T22:05:08.194Z,74.13
2019-06-08T22:09:13.476Z,75.02
2019-06-08T22:13:18.681Z,74.91
2019-06-08T22:17:23.794Z,75.27
2019-06-08T22:21:29.083Z,75.41
2019-06-08T22:25:34.231Z,75.64
2019-06-08T22:29:39.310Z,76.01
2019-06-08T22:33:44.683Z,75.67
2019-06-08T22:37:51.716Z,76.01
2019-06-08T22:41:58.514Z,75.76
2019-06-08T22:46:04.286Z,76.30
2019-06-08T22:50:10.692Z,76.73
2019-06-08T22:54:17.039Z,77.34
2019-06-08T22:58:22.179Z,77.17
2019-06-08T23:02:27.829Z,77.48
2019-06-08T23:06:33.251Z,77.52
2019-06-08T23:10:38.356Z,77.05
2019-06-08T23:14:44.463Z,76.90
2019-06-08T23:18:49.663Z,77.15
2019-06-08T23:22:55.659Z,77.19
2019-06-08T23:27:02.140Z,77.16
2019-06-08T23:31:19.318Z,77.14
2019-06-08T23:35:14.305Z,77.33
2019-06-08T23:39:19.380Z,77.25
2019-06-08T23:43:24.460Z,77.29
2019-06-08T23:47:29.548Z,77.47
2019-06-08T23:51:34.694Z,77.69
2019-06-08T23:55:39.912Z,77.64
2019-06-08T23:59:47.824Z,77.37
